KMEV/MEV METAR and TAF weather

Enter ICAO airport designator
Station Type Date Time Source
KMEV METAR 2021/09/16 22:15 UTC NOAA

KMEV 162215Z AUTO VRB04KT 7SM CLR 28/M04 A2993 RMK AO2


Station Type Date Time Source
KMEV Decoded METAR 2021/09/16 22:15 UTC NOAA

Station name not available
Sep 16, 2021 - 06:15 PM EDT / 2021.09.16 2215 UTC
Wind: Variable at 5 MPH (4 KT):0
Visibility: 7 mile(s):0
Sky conditions: clear
Temperature: 82 F (28 C)
Dew Point: 24 F (-4 C)
Relative Humidity: 12%
Pressure (altimeter): 29.93 in. Hg (1013 hPa)
ob: KMEV 162215Z AUTO VRB04KT 7SM CLR 28/M04 A2993 RMK AO2
cycle: 22

Station Type Date Time Source
KMEV TAF 2021/09/16 18:21 UTC NOAA

TAF KMEV 161720Z 1618/1718 12005KT 6SM HZ SCT040
FM162100 28010KT P6SM FEW100
FM170400 11006KT P6SM FEW250

Example: see airport list